Ames, IA (50010)

12:18 AM CST on January 17, 2017 (GMT -0600)
NE Ames | | Change Station

Elev 942 ft 42.04 °N, 93.61 °W | Updated 20 seconds ago

Overcast
Overcast
32.2 °F
Feels Like 32 °F
N
2.7
Wind Variable Wind from SSW

Today
High -- | Low -- °F
--% Chance of Precip.
Yesterday
High -- | Low -- °F
Precip. -- in
Pressure 29.87 in
Visibility 2.0 miles
Clouds Overcast 200 ft
Windchill 32 °F
Dew Point 32 °F
Humidity 99%
Rainfall 0.36 in
Snow Depth Not available.
7:38 AM 5:10 PM
Waning Gibbous, 75% visible
SPECI KAMW 170607Z AUTO 34007KT 2SM BR OVC002 01/01 A2987 RMK AO2 T00060006
Pressure 29.87 in
Visibility 2.0 miles
Clouds Overcast 200 ft
Windchill 32 °F
Dew Point 32 °F
Humidity 99%
Rainfall 0.36 in
Snow Depth Not available.
7:38 AM 5:10 PM
Waning Gibbous, 75% visible
SPECI KAMW 170607Z AUTO 34007KT 2SM BR OVC002 01/01 A2987 RMK AO2 T00060006

Get Your Daily Forecast Email!

Thanks for signing up!

Be on the lookout for a verification email in your inbox.

You'll start receiving the daily forecast at 8 AM.

×

10-Day Weather Forecast

Almanac

Astronomy

Jan. 17, 2017 Rise Set
Actual Time
Civil Twilight
Nautical Twilight
Astronomical Twilight
Moon
Length of Visible Light
Length of Day
Tomorrow will be .
, % of the Moon is Illuminated

Today's Extremes

State Highs State Lows

Community

WunderPhotos

Upload Photos

1,962,540 photos uploaded!

WunderBlog® & News

Nearby

Air Quality

  Air Quality AQ Index Pollutant
Not available.

Snow Depth

Station Depth Elevation

Earthquake Activity

City Distance Mag. Time & Date
Minimum magnitude displayed is 2.5.

Coastal Water Temperatures

Place Temperature

Stations

Nearby Weather Stations

Station Location Temp. Windchill Dew Point Humidity Wind Precip. Elev Updated Type
                   

Watches & Warnings

There are currently no watches in effect.